Wetterdaten: Woche 02.12.13 - 08.12.13 (KW49)
Datum Zeit Temp. A. Feuchte A. Luftdruck Regen Wind Richtung Taupunkt Windchill Windben
02.12.2013 00:00 3,0 C 94 % 1031,0 hPa 0,0 l/m 0,0 km/h (0 Bft) N 2,1 C 3,0 C 0,0 km/h (0 Bft)
02.12.2013 01:00 1,9 C 95 % 1031,5 hPa 0,2 l/m 0,0 km/h (0 Bft) N 1,1 C 1,9 C 0,0 km/h (0 Bft)
02.12.2013 02:00 0,1 C 95 % 1031,9 hPa 0,0 l/m 0,0 km/h (0 Bft) N -0,6 C 0,1 C 0,0 km/h (0 Bft)
02.12.2013 03:00 -1,2 C 95 % 1032,6 hPa 0,0 l/m 0,0 km/h (0 Bft) N -1,9 C -1,2 C 0,0 km/h (0 Bft)
02.12.2013 04:00 -1,9 C 95 % 1033,1 hPa 0,0 l/m 0,0 km/h (0 Bft) N -2,6 C -1,9 C 0,0 km/h (0 Bft)
02.12.2013 05:00 -2,3 C 95 % 1033,7 hPa 0,0 l/m 0,0 km/h (0 Bft) N -3,0 C -2,3 C 0,0 km/h (0 Bft)
02.12.2013 06:00 -2,6 C 96 % 1033,9 hPa 0,0 l/m 0,0 km/h (0 Bft) N -3,2 C -2,6 C 0,0 km/h (0 Bft)
02.12.2013 07:00 -2,7 C 96 % 1034,4 hPa 0,0 l/m 0,0 km/h (0 Bft) N -3,3 C -2,7 C 0,0 km/h (0 Bft)
02.12.2013 08:00 -2,6 C 95 % 1035,1 hPa 0,0 l/m 0,0 km/h (0 Bft) N -3,2 C -2,6 C 0,0 km/h (0 Bft)
02.12.2013 09:00 -2,1 C 96 % 1036,1 hPa 0,0 l/m 0,0 km/h (0 Bft) N -2,7 C -2,1 C 0,0 km/h (0 Bft)
02.12.2013 10:00 -1,4 C 95 % 1036,5 hPa 0,0 l/m 0,0 km/h (0 Bft) N -2,1 C -1,4 C 0,0 km/h (0 Bft)
02.12.2013 11:00 -0,7 C 96 % 1036,5 hPa 0,0 l/m 0,0 km/h (0 Bft) N -1,3 C -0,7 C 0,0 km/h (0 Bft)
02.12.2013 12:00 0,4 C 96 % 1036,2 hPa 0,0 l/m 0,9 km/h (0 Bft) S-SW -0,2 C 0,4 C 1,9 km/h (1 Bft)
02.12.2013 13:00 1,1 C 96 % 1036,1 hPa 0,0 l/m 0,1 km/h (0 Bft) N 0,6 C 1,1 C 0,5 km/h (0 Bft)
02.12.2013 14:00 1,5 C 96 % 1036,0 hPa 0,0 l/m 0,2 km/h (0 Bft) S 0,9 C 1,5 C 0,9 km/h (0 Bft)
02.12.2013 15:00 1,3 C 96 % 1036,0 hPa 0,0 l/m 0,3 km/h (0 Bft) S-SW 0,8 C 1,3 C 0,8 km/h (0 Bft)
02.12.2013 16:00 0,5 C 96 % 1035,9 hPa 0,2 l/m 0,0 km/h (0 Bft) N -0,0 C 0,5 C 0,1 km/h (0 Bft)
02.12.2013 17:00 -0,6 C 96 % 1035,9 hPa 0,0 l/m 0,0 km/h (0 Bft) N -1,2 C -0,6 C 0,0 km/h (0 Bft)
02.12.2013 18:00 -1,0 C 96 % 1035,9 hPa 0,0 l/m 0,0 km/h (0 Bft) N -1,6 C -1,0 C 0,1 km/h (0 Bft)
02.12.2013 19:00 -0,7 C 96 % 1035,4 hPa 0,0 l/m 0,7 km/h (0 Bft) O-SO -1,3 C -0,7 C 2,8 km/h (1 Bft)
02.12.2013 20:00 -0,4 C 96 % 1035,4 hPa 0,0 l/m 2,2 km/h (1 Bft) O-SO -0,9 C -0,4 C 5,2 km/h (1 Bft)
02.12.2013 21:00 -0,1 C 97 % 1035,0 hPa 0,0 l/m 1,8 km/h (1 Bft) S-SO -0,6 C -0,1 C 4,8 km/h (1 Bft)
02.12.2013 22:00 0,2 C 97 % 1034,6 hPa 0,0 l/m 3,0 km/h (1 Bft) S-SO -0,2 C 0,2 C 7,1 km/h (2 Bft)
02.12.2013 23:00 0,7 C 97 % 1034,3 hPa 0,0 l/m 1,8 km/h (1 Bft) S-SO 0,3 C 0,7 C 4,7 km/h (1 Bft)
03.12.2013 00:00 1,3 C 97 % 1033,7 hPa 0,0 l/m 3,5 km/h (1 Bft) O-SO 0,9 C 1,3 C 8,7 km/h (2 Bft)
03.12.2013 01:00 1,4 C 97 % 1033,2 hPa 0,0 l/m 2,2 km/h (1 Bft) S-SW 1,0 C 1,4 C 6,3 km/h (2 Bft)
03.12.2013 02:00 1,1 C 97 % 1032,7 hPa 0,0 l/m 3,1 km/h (1 Bft) SW 0,7 C 1,1 C 6,7 km/h (2 Bft)
03.12.2013 03:00 0,7 C 97 % 1032,2 hPa 0,0 l/m 2,2 km/h (1 Bft) S-SW 0,2 C 0,7 C 5,3 km/h (1 Bft)
03.12.2013 04:00 0,3 C 97 % 1031,6 hPa 0,0 l/m 1,1 km/h (0 Bft) S -0,1 C 0,3 C 3,1 km/h (1 Bft)
03.12.2013 05:00 -0,2 C 97 % 1031,3 hPa 0,0 l/m 0,5 km/h (0 Bft) SO -0,6 C -0,2 C 1,6 km/h (1 Bft)
03.12.2013 06:00 -0,9 C 97 % 1031,1 hPa 0,0 l/m 0,3 km/h (0 Bft) SW -1,3 C -0,9 C 1,2 km/h (1 Bft)
03.12.2013 07:00 -0,9 C 97 % 1031,1 hPa 0,2 l/m 0,6 km/h (0 Bft) S-SW -1,3 C -0,9 C 1,5 km/h (1 Bft)
03.12.2013 08:00 -1,3 C 96 % 1030,9 hPa 0,0 l/m 1,0 km/h (0 Bft) SW -1,8 C -1,3 C 2,8 km/h (1 Bft)
03.12.2013 09:00 -1,6 C 96 % 1030,7 hPa 0,0 l/m 0,9 km/h (0 Bft) SW -2,1 C -1,6 C 3,1 km/h (1 Bft)
03.12.2013 10:00 -1,3 C 96 % 1030,2 hPa 0,0 l/m 0,6 km/h (0 Bft) S-SO -1,8 C -1,3 C 1,9 km/h (1 Bft)
03.12.2013 11:00 -0,6 C 96 % 1029,7 hPa 0,0 l/m 1,1 km/h (1 Bft) SW -1,2 C -0,6 C 2,9 km/h (1 Bft)
03.12.2013 12:00 0,5 C 97 % 1029,1 hPa 0,0 l/m 1,4 km/h (1 Bft) S 0,1 C 0,5 C 2,8 km/h (1 Bft)
03.12.2013 13:00 1,9 C 97 % 1028,5 hPa 0,0 l/m 1,0 km/h (0 Bft) SW 1,5 C 1,9 C 2,5 km/h (1 Bft)
03.12.2013 14:00 2,3 C 97 % 1028,1 hPa 0,0 l/m 0,0 km/h (0 Bft) N 1,9 C 2,3 C 0,0 km/h (0 Bft)
03.12.2013 15:00 1,6 C 97 % 1028,0 hPa 0,0 l/m 0,0 km/h (0 Bft) N 1,2 C 1,6 C 0,0 km/h (0 Bft)
03.12.2013 16:00 0,1 C 97 % 1027,9 hPa 0,0 l/m 0,0 km/h (0 Bft) N -0,4 C 0,1 C 0,0 km/h (0 Bft)
03.12.2013 17:00 -1,0 C 97 % 1027,7 hPa 0,0 l/m 0,0 km/h (0 Bft) N -1,5 C -1,0 C 0,0 km/h (0 Bft)
03.12.2013 18:00 -1,8 C 97 % 1027,4 hPa 0,0 l/m 0,0 km/h (0 Bft) N -2,2 C -1,8 C 0,0 km/h (0 Bft)
03.12.2013 19:00 -1,9 C 97 % 1027,3 hPa 0,0 l/m 0,0 km/h (0 Bft) N -2,3 C -1,9 C 0,0 km/h (0 Bft)
03.12.2013 20:00 -2,2 C 97 % 1026,7 hPa 0,0 l/m 0,0 km/h (0 Bft) N -2,7 C -2,2 C 0,0 km/h (0 Bft)
03.12.2013 21:00 -2,3 C 97 % 1026,2 hPa 0,0 l/m 0,0 km/h (0 Bft) N -2,8 C -2,3 C 0,0 km/h (0 Bft)
03.12.2013 22:00 -2,7 C 97 % 1026,0 hPa 0,0 l/m 0,0 km/h (0 Bft) N -3,1 C -2,7 C 0,0 km/h (0 Bft)
03.12.2013 23:00 -3,1 C 96 % 1025,8 hPa 0,0 l/m 0,0 km/h (0 Bft) N -3,6 C -3,1 C 0,0 km/h (0 Bft)
04.12.2013 00:00 -3,0 C 96 % 1025,2 hPa 0,0 l/m 0,0 km/h (0 Bft) N -3,5 C -3,0 C 0,0 km/h (0 Bft)
04.12.2013 01:00 -2,5 C 96 % 1024,5 hPa 0,0 l/m 0,0 km/h (0 Bft) N -3,1 C -2,5 C 0,3 km/h (0 Bft)
04.12.2013 02:00 -1,5 C 97 % 1024,3 hPa 0,0 l/m 0,0 km/h (0 Bft) N -1,9 C -1,5 C 0,0 km/h (0 Bft)
04.12.2013 03:00 -0,6 C 97 % 1024,1 hPa 0,0 l/m 0,3 km/h (0 Bft) S-SW -1,0 C -0,6 C 1,1 km/h (0 Bft)
04.12.2013 04:00 0,1 C 97 % 1023,5 hPa 0,0 l/m 2,2 km/h (1 Bft) W -0,3 C 0,1 C 6,8 km/h (2 Bft)
04.12.2013 05:00 0,4 C 97 % 1023,1 hPa 0,0 l/m 3,0 km/h (1 Bft) S-SW -0,1 C 0,4 C 8,2 km/h (2 Bft)
04.12.2013 06:00 0,6 C 97 % 1022,7 hPa 0,0 l/m 3,3 km/h (1 Bft) W-NW 0,2 C 0,6 C 9,9 km/h (2 Bft)
04.12.2013 07:00 0,8 C 97 % 1022,0 hPa 0,2 l/m 3,4 km/h (1 Bft) S-SW 0,4 C 0,8 C 8,6 km/h (2 Bft)
04.12.2013 08:00 1,0 C 97 % 1022,0 hPa 0,0 l/m 2,9 km/h (1 Bft) SW 0,5 C 1,0 C 7,8 km/h (2 Bft)
04.12.2013 09:00 1,2 C 98 % 1022,0 hPa 0,0 l/m 3,5 km/h (1 Bft) SW 0,9 C 1,2 C 9,1 km/h (2 Bft)
04.12.2013 10:00 1,5 C 98 % 1022,0 hPa 0,0 l/m 3,4 km/h (1 Bft) SW 1,2 C 1,5 C 8,3 km/h (2 Bft)
04.12.2013 11:00 1,8 C 98 % 1021,6 hPa 0,0 l/m 3,7 km/h (1 Bft) SW 1,5 C 1,8 C 9,0 km/h (2 Bft)
04.12.2013 12:00 2,3 C 98 % 1021,2 hPa 0,0 l/m 4,9 km/h (1 Bft) SW 2,0 C 2,1 C 11,7 km/h (2 Bft)
04.12.2013 13:00 2,8 C 98 % 1020,7 hPa 0,0 l/m 5,3 km/h (1 Bft) S-SW 2,5 C 2,8 C 14,6 km/h (3 Bft)
04.12.2013 14:00 3,2 C 98 % 1020,2 hPa 0,0 l/m 5,5 km/h (2 Bft) S-SW 2,9 C 3,2 C 13,4 km/h (3 Bft)
04.12.2013 15:00 3,7 C 98 % 1020,0 hPa 0,2 l/m 5,3 km/h (1 Bft) S-SO 3,4 C 3,6 C 12,5 km/h (2 Bft)
04.12.2013 16:00 4,1 C 98 % 1020,5 hPa 0,4 l/m 4,8 km/h (1 Bft) W-SW 3,8 C 4,1 C 12,9 km/h (3 Bft)
04.12.2013 17:00 4,3 C 98 % 1021,1 hPa 0,4 l/m 4,8 km/h (1 Bft) W-SW 4,0 C 4,3 C 13,0 km/h (3 Bft)
04.12.2013 18:00 4,5 C 98 % 1021,9 hPa 0,0 l/m 4,2 km/h (1 Bft) W-NW 4,2 C 4,5 C 10,3 km/h (2 Bft)
04.12.2013 19:00 4,2 C 98 % 1022,6 hPa 0,0 l/m 2,5 km/h (1 Bft) W 3,9 C 4,2 C 7,2 km/h (2 Bft)
04.12.2013 20:00 3,7 C 98 % 1023,1 hPa 0,2 l/m 1,8 km/h (1 Bft) W 3,4 C 3,7 C 5,6 km/h (2 Bft)
04.12.2013 21:00 3,2 C 98 % 1023,7 hPa 0,0 l/m 2,5 km/h (1 Bft) W-NW 2,9 C 3,2 C 6,5 km/h (2 Bft)
04.12.2013 22:00 3,1 C 98 % 1023,9 hPa 0,0 l/m 2,9 km/h (1 Bft) S-SW 2,8 C 3,1 C 8,7 km/h (2 Bft)
04.12.2013 23:00 3,0 C 98 % 1024,3 hPa 0,0 l/m 2,8 km/h (1 Bft) W-SW 2,7 C 3,0 C 7,6 km/h (2 Bft)
05.12.2013 00:00 2,5 C 98 % 1024,6 hPa 0,0 l/m 2,6 km/h (1 Bft) W 2,2 C 2,5 C 7,8 km/h (2 Bft)
05.12.2013 01:00 2,1 C 98 % 1024,7 hPa 0,0 l/m 3,5 km/h (1 Bft) W 1,8 C 2,1 C 9,3 km/h (2 Bft)
05.12.2013 02:00 1,7 C 98 % 1024,4 hPa 0,0 l/m 4,1 km/h (1 Bft) S-SW 1,4 C 1,7 C 9,7 km/h (2 Bft)
05.12.2013 03:00 1,5 C 98 % 1024,1 hPa 0,0 l/m 3,9 km/h (1 Bft) W-NW 1,2 C 1,5 C 9,5 km/h (2 Bft)
05.12.2013 04:00 1,4 C 98 % 1023,6 hPa 0,2 l/m 3,6 km/h (1 Bft) S-SW 1,1 C 1,4 C 9,1 km/h (2 Bft)
05.12.2013 05:00 1,2 C 98 % 1022,9 hPa 0,0 l/m 3,2 km/h (1 Bft) S-SW 0,9 C 1,2 C 8,2 km/h (2 Bft)
05.12.2013 06:00 1,5 C 98 % 1021,9 hPa 0,0 l/m 5,0 km/h (1 Bft) SW 1,2 C 1,4 C 12,5 km/h (2 Bft)
05.12.2013 07:00 1,7 C 98 % 1020,9 hPa 0,0 l/m 6,9 km/h (2 Bft) S-SW 1,4 C 1,1 C 16,2 km/h (3 Bft)
05.12.2013 08:00 2,1 C 98 % 1019,5 hPa 0,0 l/m 7,6 km/h (2 Bft) S-SW 1,8 C 0,8 C 19,2 km/h (3 Bft)
05.12.2013 09:00 2,8 C 95 % 1018,1 hPa 0,0 l/m 8,6 km/h (2 Bft) S-SW 2,1 C 0,8 C 19,3 km/h (3 Bft)
05.12.2013 10:00 3,9 C 91 % 1016,5 hPa 0,0 l/m 10,6 km/h (2 Bft) S-SW 2,5 C 0,4 C 24,8 km/h (4 Bft)
05.12.2013 11:00 4,4 C 88 % 1014,4 hPa 0,0 l/m 10,8 km/h (2 Bft) SW 2,6 C 0,9 C 25,2 km/h (4 Bft)
05.12.2013 12:00 4,3 C 84 % 1011,5 hPa 0,0 l/m 12,3 km/h (2 Bft) SW 1,9 C -0,1 C 27,6 km/h (5 Bft)
05.12.2013 13:00 4,4 C 80 % 1008,0 hPa 0,0 l/m 13,9 km/h (3 Bft) W-SW 1,2 C -1,0 C 31,8 km/h (5 Bft)
05.12.2013 14:00 4,6 C 73 % 1004,3 hPa 0,0 l/m 17,1 km/h (3 Bft) S-SW 0,1 C -2,4 C 37,4 km/h (5 Bft)
05.12.2013 15:00 2,9 C 86 % 1002,6 hPa 1,2 l/m 16,0 km/h (3 Bft) SW 0,8 C -3,8 C 35,3 km/h (5 Bft)
05.12.2013 16:00 1,5 C 96 % 1000,0 hPa 1,8 l/m 14,7 km/h (3 Bft) S-SW 0,9 C -4,9 C 33,5 km/h (5 Bft)
05.12.2013 17:00 2,3 C 96 % 998,7 hPa 1,0 l/m 15,0 km/h (3 Bft) SW 1,8 C -4,1 C 33,3 km/h (5 Bft)
05.12.2013 18:00 2,9 C 96 % 998,7 hPa 0,6 l/m 13,5 km/h (3 Bft) W 2,3 C -2,5 C 31,0 km/h (5 Bft)
05.12.2013 19:00 3,0 C 96 % 998,6 hPa 1,6 l/m 9,7 km/h (2 Bft) W-NW 2,4 C 0,1 C 23,6 km/h (4 Bft)
05.12.2013 20:00 2,7 C 96 % 999,4 hPa 0,2 l/m 11,9 km/h (2 Bft) W-NW 2,2 C -1,7 C 28,2 km/h (5 Bft)
05.12.2013 21:00 2,0 C 95 % 1001,1 hPa 0,0 l/m 12,6 km/h (3 Bft) W 1,4 C -2,8 C 29,0 km/h (5 Bft)
05.12.2013 22:00 2,0 C 87 % 1002,2 hPa 0,0 l/m 13,3 km/h (3 Bft) W 0,0 C -3,4 C 29,4 km/h (5 Bft)
05.12.2013 23:00 1,5 C 84 % 1003,5 hPa 0,0 l/m 11,9 km/h (2 Bft) W-NW -1,0 C -3,1 C 29,2 km/h (5 Bft)
06.12.2013 00:00 1,4 C 83 % 1004,1 hPa 0,0 l/m 12,2 km/h (2 Bft) W-SW -1,2 C -3,4 C 30,2 km/h (5 Bft)
06.12.2013 01:00 0,0 C 94 % 1004,3 hPa 0,0 l/m 9,6 km/h (2 Bft) W -0,9 C -3,0 C 22,8 km/h (4 Bft)
06.12.2013 02:00 -0,1 C 95 % 1004,6 hPa 0,0 l/m 9,1 km/h (2 Bft) W-NW -0,9 C -2,6 C 20,6 km/h (4 Bft)
06.12.2013 03:00 -0,2 C 96 % 1004,6 hPa 0,0 l/m 9,0 km/h (2 Bft) W-NW -0,8 C -2,7 C 22,1 km/h (4 Bft)
06.12.2013 04:00 -0,2 C 96 % 1004,7 hPa 0,0 l/m 9,7 km/h (2 Bft) W -0,7 C -3,3 C 24,4 km/h (4 Bft)
06.12.2013 05:00 0,1 C 95 % 1004,6 hPa 0,0 l/m 11,7 km/h (2 Bft) W -0,6 C -4,6 C 25,9 km/h (4 Bft)
06.12.2013 06:00 0,5 C 91 % 1004,9 hPa 0,0 l/m 12,0 km/h (2 Bft) W-NW -0,7 C -4,3 C 28,3 km/h (5 Bft)
06.12.2013 07:00 0,6 C 91 % 1005,6 hPa 0,0 l/m 12,1 km/h (2 Bft) W -0,7 C -4,3 C 27,9 km/h (5 Bft)
06.12.2013 08:00 0,5 C 92 % 1006,2 hPa 0,0 l/m 11,5 km/h (2 Bft) W -0,7 C -4,0 C 25,3 km/h (4 Bft)
06.12.2013 09:00 0,9 C 90 % 1007,0 hPa 0,0 l/m 11,8 km/h (2 Bft) NW -0,6 C -3,8 C 29,2 km/h (5 Bft)
06.12.2013 10:00 1,0 C 90 % 1007,5 hPa 0,0 l/m 11,2 km/h (2 Bft) NW -0,4 C -3,2 C 25,3 km/h (4 Bft)
06.12.2013 11:00 1,2 C 91 % 1007,8 hPa 0,0 l/m 12,3 km/h (2 Bft) W -0,2 C -3,8 C 28,2 km/h (5 Bft)
06.12.2013 12:00 1,1 C 92 % 1008,2 hPa 0,4 l/m 10,8 km/h (2 Bft) W-NW -0,1 C -2,9 C 25,9 km/h (4 Bft)
06.12.2013 13:00 0,8 C 93 % 1008,7 hPa 1,0 l/m 9,5 km/h (2 Bft) W -0,3 C -2,1 C 22,4 km/h (4 Bft)
06.12.2013 14:00 0,8 C 93 % 1009,4 hPa 0,6 l/m 10,0 km/h (2 Bft) W-NW -0,3 C -2,5 C 24,3 km/h (4 Bft)
06.12.2013 15:00 0,3 C 94 % 1010,2 hPa 0,0 l/m 7,9 km/h (2 Bft) W -0,5 C -1,4 C 18,4 km/h (3 Bft)
06.12.2013 16:00 0,2 C 95 % 1011,0 hPa 0,2 l/m 13,0 km/h (3 Bft) W-NW -0,5 C -5,2 C 14,8 km/h (3 Bft)
06.12.2013 17:00 0,4 C 93 % 1012,0 hPa 0,0 l/m 8,3 km/h (2 Bft) W-NW -0,6 C -1,6 C 19,0 km/h (3 Bft)
06.12.2013 18:00 0,0 C 95 % 1012,7 hPa 0,0 l/m 4,7 km/h (1 Bft) W-NW -0,6 C -0,0 C 6,5 km/h (2 Bft)
06.12.2013 19:00 -0,1 C 96 % 1013,0 hPa 0,0 l/m 3,2 km/h (1 Bft) W-NW -0,7 C -0,1 C 3,2 km/h (1 Bft)
06.12.2013 20:00 -0,1 C 96 % 1013,8 hPa 0,0 l/m 3,2 km/h (1 Bft) W-NW -0,7 C -0,1 C 3,2 km/h (1 Bft)
06.12.2013 21:00 -0,2 C 96 % 1014,7 hPa 0,0 l/m 4,6 km/h (1 Bft) W -0,7 C -0,1 C 4,9 km/h (1 Bft)
06.12.2013 22:00 -0,5 C 96 % 1015,5 hPa 0,0 l/m 5,3 km/h (1 Bft) W-NW -1,0 C -0,5 C 10,6 km/h (2 Bft)
06.12.2013 23:00 -0,7 C 96 % 1016,4 hPa 0,0 l/m 2,2 km/h (1 Bft) W -1,3 C -0,7 C 3,6 km/h (1 Bft)
07.12.2013 00:00 -0,6 C 96 % 1017,3 hPa 0,0 l/m 3,8 km/h (1 Bft) W-NW -1,2 C -0,6 C 8,7 km/h (2 Bft)
07.12.2013 01:00 -0,6 C 96 % 1017,8 hPa 0,0 l/m 3,6 km/h (1 Bft) W -1,1 C -0,6 C 6,7 km/h (2 Bft)
07.12.2013 02:00 -0,4 C 95 % 1018,5 hPa 0,0 l/m 3,5 km/h (1 Bft) W-NW -1,1 C -0,4 C 7,4 km/h (2 Bft)
07.12.2013 03:00 -0,5 C 95 % 1019,3 hPa 0,0 l/m 1,1 km/h (1 Bft) W-NW -1,2 C -0,5 C 3,2 km/h (1 Bft)
07.12.2013 04:00 -0,6 C 95 % 1019,6 hPa 0,0 l/m 2,5 km/h (1 Bft) W -1,3 C -0,6 C 6,0 km/h (2 Bft)
07.12.2013 05:00 -0,6 C 95 % 1020,0 hPa 0,0 l/m 2,6 km/h (1 Bft) W -1,3 C -0,6 C 6,4 km/h (2 Bft)
07.12.2013 06:00 -0,5 C 95 % 1020,4 hPa 0,0 l/m 4,1 km/h (1 Bft) W-NW -1,2 C -0,5 C 5,7 km/h (2 Bft)
07.12.2013 07:00 -0,5 C 95 % 1020,6 hPa 0,0 l/m 4,8 km/h (1 Bft) W-NW -1,2 C -0,5 C 4,8 km/h (1 Bft)
07.12.2013 08:00 -0,5 C 94 % 1021,2 hPa 0,0 l/m 2,4 km/h (1 Bft) W-NW -1,3 C -0,5 C 3,6 km/h (1 Bft)
07.12.2013 09:00 -0,2 C 93 % 1021,8 hPa 0,0 l/m 1,4 km/h (1 Bft) W-SW -1,2 C -0,2 C 4,1 km/h (1 Bft)
07.12.2013 10:00 0,1 C 93 % 1022,1 hPa 0,0 l/m 1,7 km/h (1 Bft) SW -0,8 C 0,1 C 5,1 km/h (1 Bft)
07.12.2013 11:00 0,4 C 94 % 1022,1 hPa 0,0 l/m 2,6 km/h (1 Bft) W -0,5 C 0,4 C 7,5 km/h (2 Bft)
07.12.2013 12:00 0,8 C 93 % 1022,0 hPa 0,0 l/m 3,8 km/h (1 Bft) W -0,2 C 0,8 C 9,8 km/h (2 Bft)
07.12.2013 13:00 1,2 C 93 % 1022,0 hPa 0,0 l/m 2,2 km/h (1 Bft) W 0,2 C 1,2 C 6,7 km/h (2 Bft)
07.12.2013 14:00 1,3 C 93 % 1021,7 hPa 0,0 l/m 2,4 km/h (1 Bft) W-NW 0,3 C 1,3 C 6,3 km/h (2 Bft)
07.12.2013 15:00 1,5 C 93 % 1021,6 hPa 0,0 l/m 2,8 km/h (1 Bft) W-NW 0,5 C 1,5 C 7,2 km/h (2 Bft)
07.12.2013 16:00 1,6 C 93 % 1021,8 hPa 0,0 l/m 3,2 km/h (1 Bft) W-NW 0,6 C 1,6 C 3,2 km/h (1 Bft)
07.12.2013 17:00 1,1 C 62 % 1021,8 hPa 0,0 l/m 2,1 km/h (1 Bft) W-NW -19,6 C 1,1 C 2,1 km/h (1 Bft)
07.12.2013 18:00 0,0 C 0 % 1021,8 hPa 0,0 l/m 0,0 km/h (0 Bft) N -60,0 C 0,0 C 0,0 km/h (0 Bft)
07.12.2013 19:00 0,0 C 0 % 1021,9 hPa 0,0 l/m 0,0 km/h (0 Bft) N -60,0 C 0,0 C 0,0 km/h (0 Bft)
07.12.2013 20:00 1,0 C 79 % 1022,0 hPa 3,6 l/m 0,0 km/h (0 Bft) N -9,6 C 1,0 C 0,0 km/h (0 Bft)
07.12.2013 21:00 1,1 C 95 % 1022,4 hPa 0,6 l/m 0,0 km/h (0 Bft) N 0,4 C 1,1 C 0,0 km/h (0 Bft)
07.12.2013 22:00 0,8 C 96 % 1022,6 hPa 0,6 l/m 0,0 km/h (0 Bft) N 0,2 C 0,8 C 0,0 km/h (0 Bft)
07.12.2013 23:00 0,8 C 96 % 1022,5 hPa 0,2 l/m 0,0 km/h (0 Bft) N 0,3 C 0,8 C 0,0 km/h (0 Bft)
08.12.2013 00:00 1,0 C 96 % 1022,4 hPa 0,4 l/m 0,0 km/h (0 Bft) N 0,4 C 1,0 C 0,0 km/h (0 Bft)
08.12.2013 01:00 1,2 C 96 % 1022,2 hPa 0,2 l/m 0,0 km/h (0 Bft) N 0,6 C 1,2 C 0,0 km/h (0 Bft)
08.12.2013 02:00 1,1 C 96 % 1022,3 hPa 0,4 l/m 0,0 km/h (0 Bft) N 0,6 C 1,1 C 0,0 km/h (0 Bft)
08.12.2013 03:00 1,3 C 96 % 1021,8 hPa 0,2 l/m 0,0 km/h (0 Bft) N 0,7 C 1,3 C 0,0 km/h (0 Bft)
08.12.2013 04:00 1,3 C 96 % 1021,6 hPa 0,4 l/m 0,0 km/h (0 Bft) N 0,7 C 1,3 C 0,0 km/h (0 Bft)
08.12.2013 05:00 1,7 C 96 % 1021,5 hPa 0,8 l/m 0,0 km/h (0 Bft) N 1,1 C 1,7 C 0,0 km/h (0 Bft)
08.12.2013 06:00 3,2 C 97 % 1021,5 hPa 1,0 l/m 1,2 km/h (1 Bft) SW 2,8 C 3,2 C 3,5 km/h (1 Bft)
08.12.2013 07:00 4,2 C 97 % 1021,4 hPa 1,0 l/m 2,7 km/h (1 Bft) S-SW 3,7 C 4,2 C 6,7 km/h (2 Bft)
08.12.2013 08:00 4,6 C 97 % 1021,4 hPa 0,6 l/m 4,1 km/h (1 Bft) S-SW 4,1 C 4,6 C 9,8 km/h (2 Bft)
08.12.2013 09:00 4,9 C 97 % 1021,7 hPa 0,0 l/m 3,5 km/h (1 Bft) SW 4,4 C 4,9 C 9,2 km/h (2 Bft)
08.12.2013 10:00 5,3 C 94 % 1021,8 hPa 0,0 l/m 3,6 km/h (1 Bft) SW 4,5 C 5,3 C 9,9 km/h (2 Bft)
08.12.2013 11:00 6,1 C 92 % 1021,4 hPa 0,0 l/m 5,3 km/h (1 Bft) S-SW 4,8 C 6,0 C 13,7 km/h (3 Bft)
08.12.2013 12:00 6,1 C 92 % 1020,9 hPa 0,0 l/m 5,3 km/h (1 Bft) SW 4,9 C 6,0 C 14,1 km/h (3 Bft)
08.12.2013 13:00 6,5 C 90 % 1020,2 hPa 0,0 l/m 6,8 km/h (2 Bft) SW 5,1 C 6,1 C 17,0 km/h (3 Bft)
08.12.2013 14:00 7,0 C 90 % 1019,4 hPa 0,0 l/m 7,1 km/h (2 Bft) W 5,4 C 6,3 C 17,6 km/h (3 Bft)
08.12.2013 15:00 7,2 C 89 % 1019,3 hPa 0,0 l/m 7,1 km/h (2 Bft) SW 5,5 C 6,5 C 17,0 km/h (3 Bft)
08.12.2013 16:00 7,0 C 90 % 1018,9 hPa 0,0 l/m 7,5 km/h (2 Bft) S-SW 5,5 C 6,2 C 18,6 km/h (3 Bft)
08.12.2013 17:00 6,9 C 91 % 1018,6 hPa 0,2 l/m 8,0 km/h (2 Bft) SW 5,6 C 5,6 C 20,0 km/h (4 Bft)
08.12.2013 18:00 7,5 C 89 % 1018,4 hPa 0,0 l/m 9,5 km/h (2 Bft) W-NW 5,8 C 5,2 C 23,9 km/h (4 Bft)
08.12.2013 19:00 7,8 C 88 % 1017,9 hPa 0,0 l/m 10,4 km/h (2 Bft) W 5,9 C 5,0 C 23,7 km/h (4 Bft)
08.12.2013 20:00 7,9 C 88 % 1017,8 hPa 0,0 l/m 10,2 km/h (2 Bft) W 6,0 C 5,2 C 23,3 km/h (4 Bft)
08.12.2013 21:00 7,7 C 91 % 1017,8 hPa 0,0 l/m 9,5 km/h (2 Bft) SW 6,3 C 5,4 C 21,3 km/h (4 Bft)
08.12.2013 22:00 7,6 C 92 % 1018,1 hPa 0,2 l/m 8,9 km/h (2 Bft) W 6,5 C 5,7 C 22,4 km/h (4 Bft)
08.12.2013 23:00 8,0 C 92 % 1018,1 hPa 0,2 l/m 8,9 km/h (2 Bft) W 6,7 C 6,2 C 22,6 km/h (4 Bft)
Min-Datum _ 03.12.13 07.12.13 05.12.13 - 02.12.13 - 07.12.13 05.12.13 02.12.13
_ Min-Zeit 23:35 17:40 19:05 - 00:00 - 17:40 21:55 00:00
Minimum _ -3,6 C 0 % 998,2 hPa - 0,0 km/h (0 Bft) - -60,0 C -7,1 C 0,0 km/h (0 Bft)
Max-Datum _ 08.12.13 04.12.13 02.12.13 07.12.13 05.12.13 - 08.12.13 08.12.13 05.12.13
_ Max-Zeit 23:40 09:15 11:00 20:10 14:35 - 23:30 23:15 14:00
Maximum _ 8,2 C 98 % 1036,7 hPa 3,6 l/m 21,9 km/h
S-SW (4 Bft)
- 6,9 C 7,7 C 53,1 km/h
SW (7 Bft)
Durchschnitt _ 1,3 C 93 % 1021,2 hPa #21,4 l/m 4,3 km/h (1 Bft) W-NW -0,3 C 0,4 C 10,0 km/h (2 Bft)